sensor_id;sensor_type;location;lat;lon;timestamp;temperature;humidity
41058;DHT22;66768;48.884;2.258;2023-06-10T00:00:25;24.60;87.60
41058;DHT22;66768;48.884;2.258;2023-06-10T00:02:54;24.60;87.90
41058;DHT22;66768;48.884;2.258;2023-06-10T00:05:21;24.60;87.60
41058;DHT22;66768;48.884;2.258;2023-06-10T00:07:47;24.60;88.40
41058;DHT22;66768;48.884;2.258;2023-06-10T00:10:15;24.60;88.20
41058;DHT22;66768;48.884;2.258;2023-06-10T00:12:42;24.60;88.80
41058;DHT22;66768;48.884;2.258;2023-06-10T00:15:10;24.60;88.30
41058;DHT22;66768;48.884;2.258;2023-06-10T00:17:37;24.60;88.60
41058;DHT22;66768;48.884;2.258;2023-06-10T00:20:08;24.60;88.60
41058;DHT22;66768;48.884;2.258;2023-06-10T00:22:37;24.60;88.20
41058;DHT22;66768;48.884;2.258;2023-06-10T00:25:05;24.60;88.30
41058;DHT22;66768;48.884;2.258;2023-06-10T00:27:33;24.60;88.30
41058;DHT22;66768;48.884;2.258;2023-06-10T00:30:02;24.70;88.40
41058;DHT22;66768;48.884;2.258;2023-06-10T00:32:30;24.60;89.00
41058;DHT22;66768;48.884;2.258;2023-06-10T00:34:56;24.70;88.20
41058;DHT22;66768;48.884;2.258;2023-06-10T00:37:25;24.70;88.30
41058;DHT22;66768;48.884;2.258;2023-06-10T00:39:52;24.60;88.20
41058;DHT22;66768;48.884;2.258;2023-06-10T00:42:19;24.60;88.00
41058;DHT22;66768;48.884;2.258;2023-06-10T00:44:48;24.60;87.70
41058;DHT22;66768;48.884;2.258;2023-06-10T00:47:14;24.60;88.00
41058;DHT22;66768;48.884;2.258;2023-06-10T00:49:42;24.60;87.70
41058;DHT22;66768;48.884;2.258;2023-06-10T00:52:10;24.60;88.00
41058;DHT22;66768;48.884;2.258;2023-06-10T00:54:39;24.50;88.00
41058;DHT22;66768;48.884;2.258;2023-06-10T00:57:06;24.50;87.90
41058;DHT22;66768;48.884;2.258;2023-06-10T00:59:33;24.50;88.90
41058;DHT22;66768;48.884;2.258;2023-06-10T01:02:01;24.50;88.70
41058;DHT22;66768;48.884;2.258;2023-06-10T01:04:29;24.50;88.80
41058;DHT22;66768;48.884;2.258;2023-06-10T01:07:03;24.40;89.10
41058;DHT22;66768;48.884;2.258;2023-06-10T01:09:40;24.40;89.60
41058;DHT22;66768;48.884;2.258;2023-06-10T01:12:12;24.40;89.80
41058;DHT22;66768;48.884;2.258;2023-06-10T01:14:41;24.30;90.00
41058;DHT22;66768;48.884;2.258;2023-06-10T01:17:11;24.30;90.20
41058;DHT22;66768;48.884;2.258;2023-06-10T01:19:38;24.30;90.30
41058;DHT22;66768;48.884;2.258;2023-06-10T01:22:07;24.20;90.40
41058;DHT22;66768;48.884;2.258;2023-06-10T01:24:36;24.30;90.60
41058;DHT22;66768;48.884;2.258;2023-06-10T01:27:12;24.20;90.70
41058;DHT22;66768;48.884;2.258;2023-06-10T01:29:45;24.20;90.70
41058;DHT22;66768;48.884;2.258;2023-06-10T01:32:18;24.20;90.80
41058;DHT22;66768;48.884;2.258;2023-06-10T01:34:48;24.20;90.90
41058;DHT22;66768;48.884;2.258;2023-06-10T01:37:19;24.10;90.90
41058;DHT22;66768;48.884;2.258;2023-06-10T01:39:48;24.10;91.50
41058;DHT22;66768;48.884;2.258;2023-06-10T01:42:16;24.10;91.10
41058;DHT22;66768;48.884;2.258;2023-06-10T01:44:43;24.10;91.20
41058;DHT22;66768;48.884;2.258;2023-06-10T01:47:10;24.10;91.50
41058;DHT22;66768;48.884;2.258;2023-06-10T01:49:37;24.10;91.20
41058;DHT22;66768;48.884;2.258;2023-06-10T01:52:05;24.10;91.20
41058;DHT22;66768;48.884;2.258;2023-06-10T01:54:33;24.10;91.20
41058;DHT22;66768;48.884;2.258;2023-06-10T01:57:01;24.10;91.30
41058;DHT22;66768;48.884;2.258;2023-06-10T01:59:28;24.10;91.30
41058;DHT22;66768;48.884;2.258;2023-06-10T02:01:54;24.00;91.30
41058;DHT22;66768;48.884;2.258;2023-06-10T02:04:21;24.00;91.30
41058;DHT22;66768;48.884;2.258;2023-06-10T02:06:48;24.00;91.40
41058;DHT22;66768;48.884;2.258;2023-06-10T02:09:16;23.90;91.60
41058;DHT22;66768;48.884;2.258;2023-06-10T02:11:45;23.90;91.50
41058;DHT22;66768;48.884;2.258;2023-06-10T02:14:12;23.90;91.60
41058;DHT22;66768;48.884;2.258;2023-06-10T02:16:38;23.90;91.70
41058;DHT22;66768;48.884;2.258;2023-06-10T02:19:05;23.90;91.80
41058;DHT22;66768;48.884;2.258;2023-06-10T02:21:32;23.80;91.80
41058;DHT22;66768;48.884;2.258;2023-06-10T02:23:59;23.80;91.90
41058;DHT22;66768;48.884;2.258;2023-06-10T02:26:26;23.80;92.30
41058;DHT22;66768;48.884;2.258;2023-06-10T02:28:55;23.70;92.00
41058;DHT22;66768;48.884;2.258;2023-06-10T02:31:22;23.70;92.10
41058;DHT22;66768;48.884;2.258;2023-06-10T02:33:50;23.70;92.40
41058;DHT22;66768;48.884;2.258;2023-06-10T02:36:17;23.70;92.20
41058;DHT22;66768;48.884;2.258;2023-06-10T02:38:47;23.70;92.30
41058;DHT22;66768;48.884;2.258;2023-06-10T02:41:13;23.70;92.30
41058;DHT22;66768;48.884;2.258;2023-06-10T02:43:40;23.70;92.40
41058;DHT22;66768;48.884;2.258;2023-06-10T02:46:08;23.60;92.40
41058;DHT22;66768;48.884;2.258;2023-06-10T02:48:41;23.60;92.50
41058;DHT22;66768;48.884;2.258;2023-06-10T02:51:09;23.60;92.50
41058;DHT22;66768;48.884;2.258;2023-06-10T02:53:36;23.60;92.60
41058;DHT22;66768;48.884;2.258;2023-06-10T02:56:03;23.60;92.60
41058;DHT22;66768;48.884;2.258;2023-06-10T02:58:30;23.60;92.60
41058;DHT22;66768;48.884;2.258;2023-06-10T03:00:57;23.50;92.60
41058;DHT22;66768;48.884;2.258;2023-06-10T03:03:26;23.50;92.70
41058;DHT22;66768;48.884;2.258;2023-06-10T03:05:53;23.50;92.70
41058;DHT22;66768;48.884;2.258;2023-06-10T03:08:20;23.50;92.80
41058;DHT22;66768;48.884;2.258;2023-06-10T03:10:46;23.40;93.10
41058;DHT22;66768;48.884;2.258;2023-06-10T03:13:13;23.40;92.90
41058;DHT22;66768;48.884;2.258;2023-06-10T03:15:41;23.40;92.90
41058;DHT22;66768;48.884;2.258;2023-06-10T03:18:07;23.40;93.00
41058;DHT22;66768;48.884;2.258;2023-06-10T03:20:36;23.40;93.00
41058;DHT22;66768;48.884;2.258;2023-06-10T03:23:03;23.30;93.10
41058;DHT22;66768;48.884;2.258;2023-06-10T03:25:30;23.30;93.20
41058;DHT22;66768;48.884;2.258;2023-06-10T03:27:57;23.30;93.20
41058;DHT22;66768;48.884;2.258;2023-06-10T03:30:24;23.30;93.20
41058;DHT22;66768;48.884;2.258;2023-06-10T03:32:51;23.30;93.30
41058;DHT22;66768;48.884;2.258;2023-06-10T03:35:18;23.20;93.30
41058;DHT22;66768;48.884;2.258;2023-06-10T03:37:46;23.20;93.40
41058;DHT22;66768;48.884;2.258;2023-06-10T03:40:13;23.20;93.50
41058;DHT22;66768;48.884;2.258;2023-06-10T03:42:40;23.20;93.60
41058;DHT22;66768;48.884;2.258;2023-06-10T03:45:07;23.10;93.60
41058;DHT22;66768;48.884;2.258;2023-06-10T03:47:35;23.20;93.60
41058;DHT22;66768;48.884;2.258;2023-06-10T03:50:02;23.20;93.60
41058;DHT22;66768;48.884;2.258;2023-06-10T03:52:30;23.20;93.60
41058;DHT22;66768;48.884;2.258;2023-06-10T03:54:58;23.10;93.60
41058;DHT22;66768;48.884;2.258;2023-06-10T03:57:25;23.10;93.60
41058;DHT22;66768;48.884;2.258;2023-06-10T03:59:52;23.10;93.70
41058;DHT22;66768;48.884;2.258;2023-06-10T04:02:19;23.10;93.80
41058;DHT22;66768;48.884;2.258;2023-06-10T04:04:45;23.00;93.80
41058;DHT22;66768;48.884;2.258;2023-06-10T04:07:12;23.00;93.90
41058;DHT22;66768;48.884;2.258;2023-06-10T04:09:39;23.00;93.90
41058;DHT22;66768;48.884;2.258;2023-06-10T04:12:08;23.00;93.90
41058;DHT22;66768;48.884;2.258;2023-06-10T04:14:36;23.00;93.80
41058;DHT22;66768;48.884;2.258;2023-06-10T04:17:04;23.00;93.80
41058;DHT22;66768;48.884;2.258;2023-06-10T04:19:32;23.00;93.70
41058;DHT22;66768;48.884;2.258;2023-06-10T04:22:00;23.00;93.70
41058;DHT22;66768;48.884;2.258;2023-06-10T04:24:27;23.00;93.70
41058;DHT22;66768;48.884;2.258;2023-06-10T04:26:54;23.00;93.80
41058;DHT22;66768;48.884;2.258;2023-06-10T04:29:23;23.00;93.80
41058;DHT22;66768;48.884;2.258;2023-06-10T04:31:50;22.90;93.90
41058;DHT22;66768;48.884;2.258;2023-06-10T04:34:17;22.90;93.80
41058;DHT22;66768;48.884;2.258;2023-06-10T04:36:43;22.90;93.70
41058;DHT22;66768;48.884;2.258;2023-06-10T04:39:11;22.90;93.60
41058;DHT22;66768;48.884;2.258;2023-06-10T04:41:38;22.90;93.70
41058;DHT22;66768;48.884;2.258;2023-06-10T04:44:04;22.90;93.70
41058;DHT22;66768;48.884;2.258;2023-06-10T04:46:33;22.90;93.60
41058;DHT22;66768;48.884;2.258;2023-06-10T04:49:00;22.90;93.60
41058;DHT22;66768;48.884;2.258;2023-06-10T04:51:27;22.90;93.70
41058;DHT22;66768;48.884;2.258;2023-06-10T04:53:54;22.90;93.70
41058;DHT22;66768;48.884;2.258;2023-06-10T04:56:20;22.90;93.60
41058;DHT22;66768;48.884;2.258;2023-06-10T04:58:47;22.90;93.60
41058;DHT22;66768;48.884;2.258;2023-06-10T05:01:14;22.90;93.50
41058;DHT22;66768;48.884;2.258;2023-06-10T05:03:42;22.90;93.50
41058;DHT22;66768;48.884;2.258;2023-06-10T05:06:09;22.90;93.50
41058;DHT22;66768;48.884;2.258;2023-06-10T05:08:36;23.00;93.50
41058;DHT22;66768;48.884;2.258;2023-06-10T05:11:03;23.00;93.50
41058;DHT22;66768;48.884;2.258;2023-06-10T05:13:30;23.00;93.60
41058;DHT22;66768;48.884;2.258;2023-06-10T05:15:57;23.00;93.40
41058;DHT22;66768;48.884;2.258;2023-06-10T05:18:23;23.00;93.40
41058;DHT22;66768;48.884;2.258;2023-06-10T05:20:52;23.00;93.30
41058;DHT22;66768;48.884;2.258;2023-06-10T05:23:20;23.10;93.30
41058;DHT22;66768;48.884;2.258;2023-06-10T05:25:46;23.10;93.50
41058;DHT22;66768;48.884;2.258;2023-06-10T05:28:13;23.10;93.20
41058;DHT22;66768;48.884;2.258;2023-06-10T05:30:40;23.20;93.20
41058;DHT22;66768;48.884;2.258;2023-06-10T05:33:07;23.30;93.10
41058;DHT22;66768;48.884;2.258;2023-06-10T05:35:34;23.30;93.00
41058;DHT22;66768;48.884;2.258;2023-06-10T05:38:02;23.30;93.00
41058;DHT22;66768;48.884;2.258;2023-06-10T05:40:29;23.40;92.90
41058;DHT22;66768;48.884;2.258;2023-06-10T05:42:56;23.40;92.80
41058;DHT22;66768;48.884;2.258;2023-06-10T05:45:23;23.50;92.80
41058;DHT22;66768;48.884;2.258;2023-06-10T05:47:50;23.50;92.80
41058;DHT22;66768;48.884;2.258;2023-06-10T05:50:17;23.40;92.80
41058;DHT22;66768;48.884;2.258;2023-06-10T05:52:44;23.40;92.90
41058;DHT22;66768;48.884;2.258;2023-06-10T05:55:12;23.50;92.80
41058;DHT22;66768;48.884;2.258;2023-06-10T05:57:41;23.50;92.70
41058;DHT22;66768;48.884;2.258;2023-06-10T06:00:09;23.60;92.60
41058;DHT22;66768;48.884;2.258;2023-06-10T06:02:36;23.60;92.60
41058;DHT22;66768;48.884;2.258;2023-06-10T06:05:03;23.60;92.60
41058;DHT22;66768;48.884;2.258;2023-06-10T06:07:30;23.70;92.60
41058;DHT22;66768;48.884;2.258;2023-06-10T06:09:57;23.70;92.70
41058;DHT22;66768;48.884;2.258;2023-06-10T06:12:25;23.70;92.60
41058;DHT22;66768;48.884;2.258;2023-06-10T06:14:52;23.80;92.50
41058;DHT22;66768;48.884;2.258;2023-06-10T06:17:19;23.80;92.50
41058;DHT22;66768;48.884;2.258;2023-06-10T06:19:45;23.90;92.40
41058;DHT22;66768;48.884;2.258;2023-06-10T06:22:13;24.10;92.30
41058;DHT22;66768;48.884;2.258;2023-06-10T06:24:40;24.10;92.50
41058;DHT22;66768;48.884;2.258;2023-06-10T06:27:07;24.10;92.40
41058;DHT22;66768;48.884;2.258;2023-06-10T06:29:35;24.20;92.30
41058;DHT22;66768;48.884;2.258;2023-06-10T06:32:02;24.30;92.20
41058;DHT22;66768;48.884;2.258;2023-06-10T06:34:29;24.20;92.10
41058;DHT22;66768;48.884;2.258;2023-06-10T06:36:55;24.10;92.30
41058;DHT22;66768;48.884;2.258;2023-06-10T06:39:22;24.10;92.40
41058;DHT22;66768;48.884;2.258;2023-06-10T06:41:49;24.10;92.40
41058;DHT22;66768;48.884;2.258;2023-06-10T06:44:16;24.10;92.40
41058;DHT22;66768;48.884;2.258;2023-06-10T06:46:44;24.20;92.60
41058;DHT22;66768;48.884;2.258;2023-06-10T06:49:11;24.20;92.50
41058;DHT22;66768;48.884;2.258;2023-06-10T06:51:38;24.30;92.50
41058;DHT22;66768;48.884;2.258;2023-06-10T06:54:05;24.30;92.60
41058;DHT22;66768;48.884;2.258;2023-06-10T06:56:32;24.40;92.50
41058;DHT22;66768;48.884;2.258;2023-06-10T06:58:59;24.50;92.40
41058;DHT22;66768;48.884;2.258;2023-06-10T07:01:25;24.50;92.60
41058;DHT22;66768;48.884;2.258;2023-06-10T07:03:54;24.60;92.40
41058;DHT22;66768;48.884;2.258;2023-06-10T07:06:21;24.70;92.50
41058;DHT22;66768;48.884;2.258;2023-06-10T07:08:49;24.80;92.40
41058;DHT22;66768;48.884;2.258;2023-06-10T07:11:16;24.90;92.10
41058;DHT22;66768;48.884;2.258;2023-06-10T07:13:44;25.00;92.00
41058;DHT22;66768;48.884;2.258;2023-06-10T07:16:11;25.00;92.00
41058;DHT22;66768;48.884;2.258;2023-06-10T07:18:37;25.10;92.10
41058;DHT22;66768;48.884;2.258;2023-06-10T07:21:06;25.00;92.00
41058;DHT22;66768;48.884;2.258;2023-06-10T07:23:32;25.00;92.00
41058;DHT22;66768;48.884;2.258;2023-06-10T07:25:59;25.10;92.10
41058;DHT22;66768;48.884;2.258;2023-06-10T07:28:26;25.10;92.10
41058;DHT22;66768;48.884;2.258;2023-06-10T07:30:53;25.30;92.20
41058;DHT22;66768;48.884;2.258;2023-06-10T07:33:20;25.40;92.20
41058;DHT22;66768;48.884;2.258;2023-06-10T07:35:47;25.50;91.90
41058;DHT22;66768;48.884;2.258;2023-06-10T07:38:16;25.60;91.80
41058;DHT22;66768;48.884;2.258;2023-06-10T07:40:43;25.50;91.70
41058;DHT22;66768;48.884;2.258;2023-06-10T07:43:10;25.70;91.70
41058;DHT22;66768;48.884;2.258;2023-06-10T07:45:39;25.80;91.60
41058;DHT22;66768;48.884;2.258;2023-06-10T07:48:06;25.90;91.50
41058;DHT22;66768;48.884;2.258;2023-06-10T07:50:33;26.00;91.40
41058;DHT22;66768;48.884;2.258;2023-06-10T07:53:00;26.00;91.20
41058;DHT22;66768;48.884;2.258;2023-06-10T07:55:28;26.10;91.20
41058;DHT22;66768;48.884;2.258;2023-06-10T07:57:55;26.10;90.90
41058;DHT22;66768;48.884;2.258;2023-06-10T08:00:22;26.10;90.70
41058;DHT22;66768;48.884;2.258;2023-06-10T08:02:48;26.30;90.60
41058;DHT22;66768;48.884;2.258;2023-06-10T08:05:16;26.40;90.60
41058;DHT22;66768;48.884;2.258;2023-06-10T08:07:43;26.50;90.60
41058;DHT22;66768;48.884;2.258;2023-06-10T08:10:10;26.60;90.50
41058;DHT22;66768;48.884;2.258;2023-06-10T08:12:38;26.70;90.40
41058;DHT22;66768;48.884;2.258;2023-06-10T08:15:07;26.90;90.10
41058;DHT22;66768;48.884;2.258;2023-06-10T08:17:34;26.90;89.80
41058;DHT22;66768;48.884;2.258;2023-06-10T08:20:01;26.90;89.50
41058;DHT22;66768;48.884;2.258;2023-06-10T08:22:28;27.00;89.40
41058;DHT22;66768;48.884;2.258;2023-06-10T08:24:55;27.10;89.30
41058;DHT22;66768;48.884;2.258;2023-06-10T08:27:22;27.10;89.20
41058;DHT22;66768;48.884;2.258;2023-06-10T08:29:50;27.30;90.00
41058;DHT22;66768;48.884;2.258;2023-06-10T08:32:17;27.30;91.20
41058;DHT22;66768;48.884;2.258;2023-06-10T08:34:44;27.40;90.90
41058;DHT22;66768;48.884;2.258;2023-06-10T08:37:11;27.50;90.60
41058;DHT22;66768;48.884;2.258;2023-06-10T08:39:38;27.70;89.50
41058;DHT22;66768;48.884;2.258;2023-06-10T08:42:11;27.80;90.10
41058;DHT22;66768;48.884;2.258;2023-06-10T08:44:46;28.00;88.90
41058;DHT22;66768;48.884;2.258;2023-06-10T08:47:15;28.00;87.20
41058;DHT22;66768;48.884;2.258;2023-06-10T08:49:44;28.00;86.70
41058;DHT22;66768;48.884;2.258;2023-06-10T08:52:14;28.10;87.20
41058;DHT22;66768;48.884;2.258;2023-06-10T08:54:45;28.20;86.70
41058;DHT22;66768;48.884;2.258;2023-06-10T08:57:15;28.30;87.20
41058;DHT22;66768;48.884;2.258;2023-06-10T08:59:48;28.20;86.30
41058;DHT22;66768;48.884;2.258;2023-06-10T09:02:17;28.20;86.40
41058;DHT22;66768;48.884;2.258;2023-06-10T09:04:46;28.10;86.90
41058;DHT22;66768;48.884;2.258;2023-06-10T09:07:14;28.10;87.00
41058;DHT22;66768;48.884;2.258;2023-06-10T09:09:42;27.90;87.00
41058;DHT22;66768;48.884;2.258;2023-06-10T09:12:09;28.10;87.50
41058;DHT22;66768;48.884;2.258;2023-06-10T09:14:36;28.10;87.80
41058;DHT22;66768;48.884;2.258;2023-06-10T09:17:03;28.50;87.90
41058;DHT22;66768;48.884;2.258;2023-06-10T09:19:33;28.80;86.90
41058;DHT22;66768;48.884;2.258;2023-06-10T09:22:00;31.00;84.30
41058;DHT22;66768;48.884;2.258;2023-06-10T09:24:27;32.40;81.80
41058;DHT22;66768;48.884;2.258;2023-06-10T09:27:02;30.50;80.60
41058;DHT22;66768;48.884;2.258;2023-06-10T09:29:29;29.70;82.00
41058;DHT22;66768;48.884;2.258;2023-06-10T09:31:56;29.40;83.80
41058;DHT22;66768;48.884;2.258;2023-06-10T09:34:25;29.00;84.00
41058;DHT22;66768;48.884;2.258;2023-06-10T09:36:53;28.70;84.20
41058;DHT22;66768;48.884;2.258;2023-06-10T09:39:21;28.40;84.30
41058;DHT22;66768;48.884;2.258;2023-06-10T09:41:48;28.20;85.00
41058;DHT22;66768;48.884;2.258;2023-06-10T09:44:16;28.10;85.80
41058;DHT22;66768;48.884;2.258;2023-06-10T09:46:45;28.10;85.60
41058;DHT22;66768;48.884;2.258;2023-06-10T09:49:13;27.90;85.40
41058;DHT22;66768;48.884;2.258;2023-06-10T09:51:49;28.00;85.70
41058;DHT22;66768;48.884;2.258;2023-06-10T09:54:18;27.90;86.00
41058;DHT22;66768;48.884;2.258;2023-06-10T09:56:47;28.20;86.40
41058;DHT22;66768;48.884;2.258;2023-06-10T09:59:14;28.80;85.50
41058;DHT22;66768;48.884;2.258;2023-06-10T10:01:41;29.30;83.90
41058;DHT22;66768;48.884;2.258;2023-06-10T10:04:08;29.40;81.80
41058;DHT22;66768;48.884;2.258;2023-06-10T10:06:35;29.60;81.60
41058;DHT22;66768;48.884;2.258;2023-06-10T10:09:03;29.40;81.90
41058;DHT22;66768;48.884;2.258;2023-06-10T10:11:33;29.40;81.90
41058;DHT22;66768;48.884;2.258;2023-06-10T10:14:03;29.30;81.60
41058;DHT22;66768;48.884;2.258;2023-06-10T10:16:35;29.30;80.80
41058;DHT22;66768;48.884;2.258;2023-06-10T10:19:07;29.20;81.10
41058;DHT22;66768;48.884;2.258;2023-06-10T10:21:38;28.90;80.80
41058;DHT22;66768;48.884;2.258;2023-06-10T10:24:16;28.70;82.10
41058;DHT22;66768;48.884;2.258;2023-06-10T10:26:46;28.50;82.90
41058;DHT22;66768;48.884;2.258;2023-06-10T10:29:18;28.30;82.60
41058;DHT22;66768;48.884;2.258;2023-06-10T10:31:50;28.20;82.90
41058;DHT22;66768;48.884;2.258;2023-06-10T10:34:21;28.10;83.30
41058;DHT22;66768;48.884;2.258;2023-06-10T10:36:51;28.00;84.30
41058;DHT22;66768;48.884;2.258;2023-06-10T10:39:18;27.90;83.10
41058;DHT22;66768;48.884;2.258;2023-06-10T10:41:47;27.80;82.90
41058;DHT22;66768;48.884;2.258;2023-06-10T10:44:15;27.80;83.10
41058;DHT22;66768;48.884;2.258;2023-06-10T10:46:43;27.80;83.60
41058;DHT22;66768;48.884;2.258;2023-06-10T10:49:13;27.70;82.80
41058;DHT22;66768;48.884;2.258;2023-06-10T10:51:54;27.70;83.20
41058;DHT22;66768;48.884;2.258;2023-06-10T10:54:28;27.60;83.20
41058;DHT22;66768;48.884;2.258;2023-06-10T10:57:14;27.70;82.80
41058;DHT22;66768;48.884;2.258;2023-06-10T10:59:45;27.60;83.80
41058;DHT22;66768;48.884;2.258;2023-06-10T11:02:16;27.60;84.00
41058;DHT22;66768;48.884;2.258;2023-06-10T11:04:45;27.60;83.70
41058;DHT22;66768;48.884;2.258;2023-06-10T11:07:13;27.70;84.00
41058;DHT22;66768;48.884;2.258;2023-06-10T11:09:57;27.70;83.80
41058;DHT22;66768;48.884;2.258;2023-06-10T11:12:33;27.70;82.30
41058;DHT22;66768;48.884;2.258;2023-06-10T11:15:06;27.70;82.40
41058;DHT22;66768;48.884;2.258;2023-06-10T11:17:33;27.60;81.60
41058;DHT22;66768;48.884;2.258;2023-06-10T11:20:00;27.70;81.90
41058;DHT22;66768;48.884;2.258;2023-06-10T11:22:27;27.70;83.00
41058;DHT22;66768;48.884;2.258;2023-06-10T11:24:54;27.70;83.30
41058;DHT22;66768;48.884;2.258;2023-06-10T11:27:26;27.80;83.40
41058;DHT22;66768;48.884;2.258;2023-06-10T11:30:19;27.80;84.00
41058;DHT22;66768;48.884;2.258;2023-06-10T11:32:51;27.80;82.30
41058;DHT22;66768;48.884;2.258;2023-06-10T11:35:19;27.70;82.20
41058;DHT22;66768;48.884;2.258;2023-06-10T11:37:47;27.70;83.20
41058;DHT22;66768;48.884;2.258;2023-06-10T11:40:14;27.80;83.50
41058;DHT22;66768;48.884;2.258;2023-06-10T11:42:43;27.80;83.50
41058;DHT22;66768;48.884;2.258;2023-06-10T11:45:15;27.80;84.00
41058;DHT22;66768;48.884;2.258;2023-06-10T11:47:55;27.80;83.90
41058;DHT22;66768;48.884;2.258;2023-06-10T11:50:28;27.70;83.50
41058;DHT22;66768;48.884;2.258;2023-06-10T11:52:55;27.90;83.70
41058;DHT22;66768;48.884;2.258;2023-06-10T11:55:24;27.90;83.30
41058;DHT22;66768;48.884;2.258;2023-06-10T11:57:53;27.90;82.20
41058;DHT22;66768;48.884;2.258;2023-06-10T12:00:23;27.90;82.00
41058;DHT22;66768;48.884;2.258;2023-06-10T12:02:55;27.90;82.30
41058;DHT22;66768;48.884;2.258;2023-06-10T12:05:23;27.90;81.90
41058;DHT22;66768;48.884;2.258;2023-06-10T12:08:08;27.90;81.30
41058;DHT22;66768;48.884;2.258;2023-06-10T12:10:40;27.90;81.00
41058;DHT22;66768;48.884;2.258;2023-06-10T12:13:09;27.80;82.30
41058;DHT22;66768;48.884;2.258;2023-06-10T12:15:36;27.80;83.10
41058;DHT22;66768;48.884;2.258;2023-06-10T12:18:03;27.80;84.10
41058;DHT22;66768;48.884;2.258;2023-06-10T12:20:32;27.90;83.00
41058;DHT22;66768;48.884;2.258;2023-06-10T12:22:59;27.80;83.80
41058;DHT22;66768;48.884;2.258;2023-06-10T12:25:27;27.80;83.70
41058;DHT22;66768;48.884;2.258;2023-06-10T12:27:55;27.80;84.10
41058;DHT22;66768;48.884;2.258;2023-06-10T12:30:27;27.70;83.90
41058;DHT22;66768;48.884;2.258;2023-06-10T12:32:54;27.80;84.50
41058;DHT22;66768;48.884;2.258;2023-06-10T12:35:22;27.70;84.60
41058;DHT22;66768;48.884;2.258;2023-06-10T12:37:58;27.70;84.00
41058;DHT22;66768;48.884;2.258;2023-06-10T12:40:27;27.80;83.40
41058;DHT22;66768;48.884;2.258;2023-06-10T12:42:54;27.90;82.60
41058;DHT22;66768;48.884;2.258;2023-06-10T12:45:29;27.90;83.20
41058;DHT22;66768;48.884;2.258;2023-06-10T12:48:07;28.00;83.60
41058;DHT22;66768;48.884;2.258;2023-06-10T12:50:35;28.00;84.80
41058;DHT22;66768;48.884;2.258;2023-06-10T12:53:02;27.90;84.50
41058;DHT22;66768;48.884;2.258;2023-06-10T12:55:29;27.90;84.60
41058;DHT22;66768;48.884;2.258;2023-06-10T12:57:56;27.90;85.20
41058;DHT22;66768;48.884;2.258;2023-06-10T13:00:23;27.80;85.00
41058;DHT22;66768;48.884;2.258;2023-06-10T13:02:56;27.80;85.20
41058;DHT22;66768;48.884;2.258;2023-06-10T13:05:23;27.80;85.70
41058;DHT22;66768;48.884;2.258;2023-06-10T13:07:50;27.70;86.90
41058;DHT22;66768;48.884;2.258;2023-06-10T13:10:18;27.70;85.40
41058;DHT22;66768;48.884;2.258;2023-06-10T13:12:45;27.70;86.00
41058;DHT22;66768;48.884;2.258;2023-06-10T13:15:12;27.70;83.90
41058;DHT22;66768;48.884;2.258;2023-06-10T13:17:41;27.70;84.80
41058;DHT22;66768;48.884;2.258;2023-06-10T13:20:10;27.80;85.00
41058;DHT22;66768;48.884;2.258;2023-06-10T13:22:37;27.70;86.60
41058;DHT22;66768;48.884;2.258;2023-06-10T13:25:05;27.70;87.30
41058;DHT22;66768;48.884;2.258;2023-06-10T13:27:33;27.70;86.70
41058;DHT22;66768;48.884;2.258;2023-06-10T13:30:00;27.70;84.50
41058;DHT22;66768;48.884;2.258;2023-06-10T13:32:27;27.80;84.90
41058;DHT22;66768;48.884;2.258;2023-06-10T13:34:54;27.80;85.40
41058;DHT22;66768;48.884;2.258;2023-06-10T13:37:23;27.90;84.30
41058;DHT22;66768;48.884;2.258;2023-06-10T13:39:50;27.90;85.40
41058;DHT22;66768;48.884;2.258;2023-06-10T13:42:17;27.90;84.50
41058;DHT22;66768;48.884;2.258;2023-06-10T13:44:44;28.00;85.30
41058;DHT22;66768;48.884;2.258;2023-06-10T13:47:13;28.10;85.70
41058;DHT22;66768;48.884;2.258;2023-06-10T13:49:39;28.10;86.20
41058;DHT22;66768;48.884;2.258;2023-06-10T13:52:07;28.10;85.60
41058;DHT22;66768;48.884;2.258;2023-06-10T13:54:35;28.10;85.20
41058;DHT22;66768;48.884;2.258;2023-06-10T13:57:02;28.10;85.70
41058;DHT22;66768;48.884;2.258;2023-06-10T13:59:29;28.10;84.00
41058;DHT22;66768;48.884;2.258;2023-06-10T14:01:56;28.10;83.70
41058;DHT22;66768;48.884;2.258;2023-06-10T14:04:23;28.00;82.70
41058;DHT22;66768;48.884;2.258;2023-06-10T14:06:50;28.00;84.50
41058;DHT22;66768;48.884;2.258;2023-06-10T14:09:17;27.90;84.50
41058;DHT22;66768;48.884;2.258;2023-06-10T14:11:46;27.80;84.70
41058;DHT22;66768;48.884;2.258;2023-06-10T14:14:13;27.90;83.00
41058;DHT22;66768;48.884;2.258;2023-06-10T14:16:40;27.80;84.40
41058;DHT22;66768;48.884;2.258;2023-06-10T14:19:07;27.80;84.30
41058;DHT22;66768;48.884;2.258;2023-06-10T14:21:34;27.80;84.90
41058;DHT22;66768;48.884;2.258;2023-06-10T14:24:01;27.70;85.00
41058;DHT22;66768;48.884;2.258;2023-06-10T14:26:28;27.80;84.20
41058;DHT22;66768;48.884;2.258;2023-06-10T14:28:57;27.80;83.80
41058;DHT22;66768;48.884;2.258;2023-06-10T14:31:23;27.80;82.50
41058;DHT22;66768;48.884;2.258;2023-06-10T14:33:50;27.80;84.30
41058;DHT22;66768;48.884;2.258;2023-06-10T14:36:17;27.80;83.80
41058;DHT22;66768;48.884;2.258;2023-06-10T14:38:44;27.80;83.60
41058;DHT22;66768;48.884;2.258;2023-06-10T14:41:13;27.80;83.00
41058;DHT22;66768;48.884;2.258;2023-06-10T14:43:40;27.70;83.30
41058;DHT22;66768;48.884;2.258;2023-06-10T14:46:08;27.70;83.20
41058;DHT22;66768;48.884;2.258;2023-06-10T14:48:35;27.70;83.00
41058;DHT22;66768;48.884;2.258;2023-06-10T14:51:02;27.70;84.30
41058;DHT22;66768;48.884;2.258;2023-06-10T14:53:29;27.60;83.70
41058;DHT22;66768;48.884;2.258;2023-06-10T14:55:56;27.60;84.30
41058;DHT22;66768;48.884;2.258;2023-06-10T14:58:22;27.60;84.00
41058;DHT22;66768;48.884;2.258;2023-06-10T15:00:49;27.60;84.60
41058;DHT22;66768;48.884;2.258;2023-06-10T15:03:18;27.70;84.50
41058;DHT22;66768;48.884;2.258;2023-06-10T15:05:46;27.60;83.60
41058;DHT22;66768;48.884;2.258;2023-06-10T15:08:13;27.70;83.40
41058;DHT22;66768;48.884;2.258;2023-06-10T15:10:40;27.70;84.90
41058;DHT22;66768;48.884;2.258;2023-06-10T15:13:07;27.70;84.60
41058;DHT22;66768;48.884;2.258;2023-06-10T15:15:34;27.70;84.80
41058;DHT22;66768;48.884;2.258;2023-06-10T15:18:01;27.70;84.90
41058;DHT22;66768;48.884;2.258;2023-06-10T15:20:29;27.70;83.60
41058;DHT22;66768;48.884;2.258;2023-06-10T15:22:56;27.80;82.90
41058;DHT22;66768;48.884;2.258;2023-06-10T15:25:23;27.80;82.80
41058;DHT22;66768;48.884;2.258;2023-06-10T15:27:51;27.90;83.80
41058;DHT22;66768;48.884;2.258;2023-06-10T15:30:18;27.80;83.60
41058;DHT22;66768;48.884;2.258;2023-06-10T15:32:45;27.80;83.90
41058;DHT22;66768;48.884;2.258;2023-06-10T15:35:12;27.90;83.90